Time;durP1;ratioP1;P1;durP2;ratioP2;P2;SDS_P1;SDS_P2;PMS_P1;PMS_P2;Temp;Humidity;BMP_temperature;BMP_pressure;BME280_temperature;BME280_humidity;BME280_pressure;Samples;Min_cycle;Max_cycle;Signal;HPM_P1;HPM_P2
2024/04/17 00:01:07;;;;;;;3.88;2.13;;;;;;;;;;6333141;22;20761;-84
2024/04/17 00:03:34;;;;;;;2.95;1.65;;;;;;;;;;6332959;22;20216;-84
2024/04/17 00:06:04;;;;;;;4.75;2.20;;;;;;;;;;6334005;22;20235;-85
2024/04/17 00:08:33;;;;;;;2.88;2.55;;;;;;;;;;6349985;22;20224;-84
2024/04/17 00:11:00;;;;;;;4.28;1.98;;;;;;;;;;6342206;22;20223;-84
2024/04/17 00:13:30;;;;;;;2.45;2.35;;;;;;;;;;6339990;22;20574;-85
2024/04/17 00:15:59;;;;;;;3.15;1.95;;;;;;;;;;6335623;22;20231;-85
2024/04/17 00:18:31;;;;;;;2.03;1.92;;;;;;;;;;6334945;22;20267;-85
2024/04/17 00:20:58;;;;;;;2.78;1.40;;;;;;;;;;6353838;22;20251;-84
2024/04/17 00:23:28;;;;;;;3.42;2.20;;;;;;;;;;6353225;22;20212;-84
2024/04/17 00:25:55;;;;;;;2.20;2.10;;;;;;;;;;6354534;22;20203;-84
2024/04/17 00:28:25;;;;;;;2.30;2.10;;;;;;;;;;6338303;22;20219;-84
2024/04/17 00:30:52;;;;;;;4.00;1.95;;;;;;;;;;6335023;22;20231;-85
2024/04/17 00:33:21;;;;;;;4.07;2.17;;;;;;;;;;6333633;22;20303;-86
2024/04/17 00:35:51;;;;;;;2.78;2.28;;;;;;;;;;6333427;22;20575;-85
2024/04/17 00:38:20;;;;;;;3.45;2.45;;;;;;;;;;6333470;22;20232;-85
2024/04/17 00:40:47;;;;;;;3.40;2.30;;;;;;;;;;6333941;22;20228;-84
2024/04/17 00:43:17;;;;;;;2.80;2.15;;;;;;;;;;6335048;22;20235;-85
2024/04/17 00:45:44;;;;;;;2.97;2.50;;;;;;;;;;6335664;22;20266;-85
2024/04/17 00:48:15;;;;;;;2.72;2.45;;;;;;;;;;6335238;22;20305;-85
2024/04/17 00:50:43;;;;;;;2.42;2.15;;;;;;;;;;6337261;22;20794;-85
2024/04/17 00:53:15;;;;;;;4.10;1.95;;;;;;;;;;6336444;22;20691;-84
2024/04/17 00:55:42;;;;;;;2.75;2.15;;;;;;;;;;6336861;22;20220;-84
2024/04/17 00:58:12;;;;;;;4.30;2.15;;;;;;;;;;6337489;22;20284;-85
2024/04/17 01:00:38;;;;;;;3.30;2.22;;;;;;;;;;6338460;22;20235;-85
2024/04/17 01:03:07;;;;;;;2.95;2.75;;;;;;;;;;6337118;22;20314;-84
2024/04/17 01:05:33;;;;;;;6.15;1.92;;;;;;;;;;6337180;22;20223;-85
2024/04/17 01:08:04;;;;;;;2.08;1.88;;;;;;;;;;6336257;22;20304;-85
2024/04/17 01:10:33;;;;;;;9.25;2.75;;;;;;;;;;6337054;22;20266;-85
2024/04/17 01:13:02;;;;;;;3.10;2.10;;;;;;;;;;6338791;22;20271;-84
2024/04/17 01:15:28;;;;;;;3.45;1.92;;;;;;;;;;6342925;22;20254;-84
2024/04/17 01:17:57;;;;;;;4.80;2.10;;;;;;;;;;6350922;22;20267;-85
2024/04/17 01:20:23;;;;;;;2.88;2.67;;;;;;;;;;6344267;22;20258;-85
2024/04/17 01:22:52;;;;;;;5.10;2.67;;;;;;;;;;6353353;22;20274;-85
2024/04/17 01:25:21;;;;;;;3.05;2.75;;;;;;;;;;6352496;22;20581;-85
2024/04/17 01:27:50;;;;;;;2.70;2.50;;;;;;;;;;6348998;22;20228;-85
2024/04/17 01:30:16;;;;;;;2.67;2.20;;;;;;;;;;6344399;22;20219;-85
2024/04/17 01:32:45;;;;;;;5.43;3.05;;;;;;;;;;6346195;22;20212;-84
2024/04/17 01:35:12;;;;;;;2.38;2.20;;;;;;;;;;6351216;22;20220;-84
2024/04/17 01:37:41;;;;;;;4.57;3.10;;;;;;;;;;6340811;22;20220;-85
2024/04/17 01:40:07;;;;;;;3.65;2.78;;;;;;;;;;6343316;22;20219;-84
2024/04/17 01:42:39;;;;;;;2.70;2.50;;;;;;;;;;6353616;22;20259;-84
2024/04/17 01:45:06;;;;;;;4.75;1.88;;;;;;;;;;6344554;22;20212;-85
2024/04/17 01:47:35;;;;;;;2.25;1.90;;;;;;;;;;6341241;22;20719;-85
2024/04/17 01:50:02;;;;;;;2.95;2.13;;;;;;;;;;6336709;22;20571;-85
2024/04/17 01:52:31;;;;;;;3.28;1.95;;;;;;;;;;6336400;22;20262;-85
2024/04/17 01:54:57;;;;;;;3.72;1.98;;;;;;;;;;6336206;22;20258;-85
2024/04/17 01:57:25;;;;;;;2.35;1.95;;;;;;;;;;6335810;22;20231;-85
2024/04/17 01:59:54;;;;;;;4.95;2.45;;;;;;;;;;6335150;22;20223;-85
2024/04/17 02:02:23;;;;;;;5.38;2.10;;;;;;;;;;6335762;22;20240;-85
2024/04/17 02:04:49;;;;;;;2.88;2.30;;;;;;;;;;6335664;22;20560;-85
2024/04/17 02:07:18;;;;;;;2.47;1.83;;;;;;;;;;6336380;22;20233;-85
2024/04/17 02:09:45;;;;;;;2.10;1.90;;;;;;;;;;6335297;22;20271;-85
2024/04/17 02:12:15;;;;;;;3.45;1.98;;;;;;;;;;6335234;22;20274;-85
2024/04/17 02:14:42;;;;;;;5.72;2.72;;;;;;;;;;6334925;22;20224;-85
2024/04/17 02:17:14;;;;;;;3.30;1.75;;;;;;;;;;6335150;22;20228;-85
2024/04/17 02:19:41;;;;;;;1.88;1.77;;;;;;;;;;6334459;22;20211;-85
2024/04/17 02:22:11;;;;;;;2.60;1.85;;;;;;;;;;6334048;22;20307;-85
2024/04/17 02:24:37;;;;;;;3.17;1.92;;;;;;;;;;6334257;22;20258;-84
2024/04/17 02:27:06;;;;;;;3.65;1.80;;;;;;;;;;6334411;22;20239;-84
2024/04/17 02:29:33;;;;;;;3.90;3.28;;;;;;;;;;6334606;22;20331;-85
2024/04/17 02:32:02;;;;;;;2.05;1.75;;;;;;;;;;6334652;22;20240;-85
2024/04/17 02:34:31;;;;;;;2.00;1.80;;;;;;;;;;6334581;22;20544;-84
2024/04/17 02:37:01;;;;;;;1.70;1.58;;;;;;;;;;6335330;22;20239;-84
2024/04/17 02:39:26;;;;;;;3.67;1.83;;;4.60;1.00;;;;;;6337029;22;20250;-84
2024/04/17 02:41:55;;;;;;;4.60;2.60;;;4.60;1.00;;;;;;6335219;22;20231;-85
2024/04/17 02:44:21;;;;;;;2.22;2.05;;;4.70;1.00;;;;;;6334704;22;20497;-85
2024/04/17 02:46:49;;;;;;;4.63;2.80;;;4.80;1.00;;;;;;6334837;22;20224;-85
2024/04/17 02:49:15;;;;;;;2.90;2.08;;;4.70;1.00;;;;;;6340656;22;20456;-85
2024/04/17 02:51:47;;;;;;;2.53;2.10;;;4.60;1.00;;;;;;6338137;22;20227;-85
2024/04/17 02:54:13;;;;;;;1.60;1.50;;;4.60;1.00;;;;;;6336701;22;20769;-85
2024/04/17 02:56:42;;;;;;;2.03;1.60;;;4.70;1.00;;;;;;6338599;22;20227;-85
2024/04/17 02:59:08;;;;;;;2.63;1.77;;;4.60;1.00;;;;;;6349338;22;20452;-82
2024/04/17 03:01:36;;;;;;;3.77;1.70;;;4.60;1.00;;;;;;6336491;22;20294;-85
2024/04/17 03:04:02;;;;;;;1.70;1.60;;;4.60;1.00;;;;;;6334924;22;20433;-85
2024/04/17 03:06:31;;;;;;;2.50;1.58;;;4.60;1.00;;;;;;6333646;22;20228;-85
2024/04/17 03:08:59;;;;;;;4.32;1.55;;;4.60;1.00;;;;;;6333387;22;20216;-85
2024/04/17 03:11:28;;;;;;;2.58;2.47;;;4.60;1.00;;;;;;6338423;22;20240;-85
2024/04/17 03:13:54;;;;;;;1.83;1.58;;;4.50;1.00;;;;;;6335537;22;20216;-85
2024/04/17 03:16:22;;;;;;;1.73;1.60;;;4.60;1.00;;;;;;6334187;22;20275;-85
2024/04/17 03:18:48;;;;;;;2.35;1.85;;;4.60;1.00;;;;;;6334657;22;20485;-85
2024/04/17 03:21:16;;;;;;;4.50;1.97;;;4.70;1.00;;;;;;6334963;22;20700;-85
2024/04/17 03:23:42;;;;;;;1.85;1.50;;;4.70;1.00;;;;;;6335519;22;20484;-85
2024/04/17 03:26:14;;;;;;;2.93;1.77;;;4.70;1.00;;;;;;6350130;22;20219;-85
2024/04/17 03:28:39;;;;;;;4.85;2.35;;;4.80;1.00;;;;;;6345000;22;20590;-86
2024/04/17 03:31:08;;;;;;;2.80;2.17;;;4.70;1.00;;;;;;6335772;22;20235;-85
2024/04/17 03:33:34;;;;;;;2.20;1.67;;;4.70;1.00;;;;;;6341697;22;20495;-82
2024/04/17 03:36:02;;;;;;;2.37;1.77;;;4.80;1.00;;;;;;6354899;22;20211;-82
2024/04/17 03:38:31;;;;;;;1.67;1.58;;;4.70;1.00;;;;;;6354340;22;20492;-85
2024/04/17 03:40:59;;;;;;;2.15;1.95;;;4.60;1.00;;;;;;6354585;22;20216;-83
2024/04/17 03:43:30;;;;;;;1.38;1.38;;;4.60;1.00;;;;;;6352355;22;20243;-85
2024/04/17 03:46:02;;;;;;;2.00;1.85;;;4.60;19.90;;;;;;6343247;22;20254;-85
2024/04/17 03:48:28;;;;;;;2.25;2.05;;;4.60;1.00;;;;;;6336155;22;20216;-85
2024/04/17 03:50:56;;;;;;;3.87;1.90;;;4.60;1.00;;;;;;6334572;22;20339;-85
2024/04/17 03:53:25;;;;;;;1.75;1.52;;;4.60;1.00;;;;;;6334973;22;20818;-85
2024/04/17 03:55:54;;;;;;;2.15;1.67;;;4.60;39.10;;;;;;6335292;22;20272;-83
2024/04/17 03:58:20;;;;;;;2.10;2.00;;;4.70;30.90;;;;;;6334915;22;20219;-84
2024/04/17 04:00:51;;;;;;;3.10;2.35;;;4.40;1.00;;;;;;6335648;22;20575;-84
2024/04/17 04:03:17;;;;;;;3.38;2.30;;;4.50;2.90;;;;;;6342911;22;20224;-84
2024/04/17 04:05:46;;;;;;;2.00;1.80;;;4.60;44.90;;;;;;6344616;22;20287;-84
2024/04/17 04:08:12;;;;;;;3.67;2.20;;;4.60;16.20;;;;;;6335102;22;20517;-84
2024/04/17 04:10:40;;;;;;;4.70;2.05;;;4.70;7.30;;;;;;6334419;22;20299;-84
2024/04/17 04:13:06;;;;;;;2.42;1.50;;;4.60;17.30;;;;;;6334534;22;20275;-84
2024/04/17 04:15:35;;;;;;;4.70;2.10;;;4.60;73.40;;;;;;6334936;22;20223;-84
2024/04/17 04:18:04;;;;;;;4.55;1.95;;;4.70;56.50;;;;;;6334057;22;20263;-85
2024/04/17 04:20:32;;;;;;;2.20;1.70;;;4.60;98.50;;;;;;6336326;22;20239;-85
2024/04/17 04:22:58;;;;;;;1.92;1.80;;;4.60;99.90;;;;;;6349589;22;20219;-84
2024/04/17 04:25:26;;;;;;;2.20;2.00;;;4.80;99.90;;;;;;6341057;22;20271;-84
2024/04/17 04:27:52;;;;;;;4.43;1.95;;;4.80;1.00;;;;;;6337053;22;21052;-84
2024/04/17 04:30:21;;;;;;;2.93;2.20;;;4.90;1.00;;;;;;6337625;22;20232;-84
2024/04/17 04:32:47;;;;;;;2.35;2.15;;;5.00;1.00;;;;;;6340808;22;20436;-84
2024/04/17 04:35:18;;;;;;;1.90;1.80;;;4.90;1.00;;;;;;6338387;22;20262;-84
2024/04/17 04:37:44;;;;;;;2.15;2.00;;;4.90;1.00;;;;;;6337393;22;20510;-84
2024/04/17 04:40:12;;;;;;;2.20;1.90;;;4.90;1.00;;;;;;6336438;22;20222;-83
2024/04/17 04:42:38;;;;;;;3.20;2.28;;;4.90;1.00;;;;;;6338090;22;20464;-84
2024/04/17 04:45:07;;;;;;;2.90;1.70;;;5.00;1.00;;;;;;6336707;22;20533;-84
2024/04/17 04:47:33;;;;;;;2.13;2.00;;;5.00;1.00;;;;;;6336228;22;20507;-83
2024/04/17 04:50:02;;;;;;;2.20;2.00;;;5.00;1.00;;;;;;6336506;22;20271;-84
2024/04/17 04:52:31;;;;;;;1.90;1.80;;;5.10;1.00;;;;;;6337043;22;20758;-84
2024/04/17 04:54:59;;;;;;;1.95;1.70;;;5.10;1.00;;;;;;6336352;22;20243;-84
2024/04/17 04:57:25;;;;;;;2.55;1.70;;;5.10;1.00;;;;;;6337250;22;20228;-84
2024/04/17 04:59:54;;;;;;;3.97;2.03;;;5.10;1.00;;;;;;6339898;22;20224;-84
2024/04/17 05:02:21;;;;;;;4.28;2.25;;;5.30;1.00;;;;;;6340953;22;20493;-84
2024/04/17 05:04:49;;;;;;;3.65;1.98;;;5.30;1.00;;;;;;6343753;22;20224;-83
2024/04/17 05:07:15;;;;;;;3.47;2.35;;;5.20;1.00;;;;;;6339444;22;20271;-84
2024/04/17 05:09:48;;;;;;;3.40;2.40;;;5.30;1.00;;;;;;6336769;22;20235;-84
2024/04/17 05:12:13;;;;;;;2.45;2.22;;;5.20;1.00;;;;;;6338193;22;20491;-84
2024/04/17 05:14:42;;;;;;;5.27;3.27;;;5.20;1.00;;;;;;6336596;22;20223;-84
2024/04/17 05:17:08;;;;;;;3.08;2.35;;;5.10;1.00;;;;;;6336995;22;20773;-83
2024/04/17 05:19:36;;;;;;;6.20;4.47;;;5.10;1.00;;;;;;6336313;22;20224;-83
2024/04/17 05:22:02;;;;;;;3.67;2.63;;;5.10;1.00;;;;;;6337429;22;20520;-83
2024/04/17 05:24:31;;;;;;;5.97;2.65;;;5.20;1.00;;;;;;6295365;22;20224;-83
2024/04/17 05:26:59;;;;;;;4.25;3.20;;;5.20;1.00;;;;;;6345813;22;20220;-84
2024/04/17 05:29:28;;;;;;;4.70;2.53;;;5.40;1.00;;;;;;6354625;22;20272;-84
2024/04/17 05:31:54;;;;;;;2.83;2.63;;;5.40;1.00;;;;;;6348033;22;20232;-83
2024/04/17 05:34:22;;;;;;;3.70;2.80;;;5.60;1.00;;;;;;6349990;22;20219;-83
2024/04/17 05:36:48;;;;;;;3.42;2.13;;;5.40;1.00;;;;;;6348203;22;20441;-84
2024/04/17 05:39:17;;;;;;;4.47;2.47;;;5.50;1.00;;;;;;6348560;22;20307;-84
2024/04/17 05:41:43;;;;;;;9.07;3.75;;;5.50;1.00;;;;;;6349739;22;20488;-83
2024/04/17 05:44:14;;;;;;;2.70;2.33;;;5.80;1.00;;;;;;6350011;22;20215;-83
2024/04/17 05:46:40;;;;;;;5.10;2.65;;;5.60;1.00;;;;;;6351941;22;20484;-83
2024/04/17 05:49:09;;;;;;;3.27;2.97;;;5.50;1.00;;;;;;6351953;22;20260;-83
2024/04/17 05:51:35;;;;;;;4.55;2.65;;;5.60;1.00;;;;;;6348744;22;20476;-83
2024/04/17 05:54:03;;;;;;;9.30;3.93;;;5.80;1.00;;;;;;6348669;22;20300;-84
2024/04/17 05:56:29;;;;;;;3.20;2.97;;;5.80;1.00;;;;;;6348328;22;20436;-83
2024/04/17 05:58:58;;;;;;;3.67;2.83;;;5.90;1.00;;;;;;6349503;22;20263;-83
2024/04/17 06:01:27;;;;;;;7.75;3.90;;;6.00;1.00;;;;;;6349350;22;20472;-83
2024/04/17 06:03:55;;;;;;;7.20;3.50;;;5.90;1.00;;;;;;6350233;22;20359;-84
2024/04/17 06:06:21;;;;;;;4.40;2.70;;;6.10;1.00;;;;;;6344906;22;20258;-85
2024/04/17 06:08:50;;;;;;;3.40;3.13;;;6.00;99.90;;;;;;6341845;22;20229;-85
2024/04/17 06:11:17;;;;;;;3.88;3.33;;;5.90;1.00;;;;;;6342956;22;20449;-85
2024/04/17 06:13:45;;;;;;;2.75;2.50;;;6.00;99.90;;;;;;6339214;22;20248;-84
2024/04/17 06:16:11;;;;;;;4.85;3.47;;;6.10;99.90;;;;;;6341683;22;20216;-85
2024/04/17 06:18:42;;;;;;;3.65;3.08;;;6.10;99.90;;;;;;6341198;22;20228;-84
2024/04/17 06:21:08;;;;;;;3.80;3.45;;;6.40;99.90;;;;;;6340785;22;20544;-84
2024/04/17 06:23:37;;;;;;;4.57;2.90;;;6.50;99.90;;;;;;6338654;22;20262;-84
2024/04/17 06:26:03;;;;;;;3.47;2.50;;;6.70;99.90;;;;;;6339638;22;20942;-84
2024/04/17 06:28:32;;;;;;;3.20;2.80;;;6.50;99.90;;;;;;6337013;22;20829;-85
2024/04/17 06:30:58;;;;;;;3.27;3.00;;;6.40;99.90;;;;;;6338510;22;20359;-86
2024/04/17 06:33:26;;;;;;;5.13;3.13;;;6.50;99.90;;;;;;6338227;22;20515;-85
2024/04/17 06:35:55;;;;;;;4.18;2.95;;;6.40;99.90;;;;;;6338179;22;20460;-85
2024/04/17 06:38:23;;;;;;;5.57;2.88;;;6.20;99.90;;;;;;6338809;22;20220;-84
2024/04/17 06:40:49;;;;;;;5.10;3.17;;;6.20;99.90;;;;;;6347012;22;20347;-84
2024/04/17 06:43:18;;;;;;;6.40;4.22;;;6.00;99.90;;;;;;6339590;22;20228;-84
2024/04/17 06:45:48;;;;;;;5.10;3.73;;;6.50;99.90;;;;;;6337165;22;20674;-85
2024/04/17 06:48:14;;;;;;;3.30;3.00;;;6.70;99.90;;;;;;6336786;22;20509;-85
2024/04/17 06:50:43;;;;;;;5.50;3.23;;;6.40;99.90;;;;;;6337080;22;20484;-85
2024/04/17 06:53:12;;;;;;;3.33;2.37;;;6.70;99.90;;;;;;6337315;22;20445;-85
2024/04/17 06:55:40;;;;;;;3.53;3.20;;;6.60;99.90;;;;;;6345859;22;20501;-85
2024/04/17 06:58:08;;;;;;;5.72;3.33;;;6.50;99.90;;;;;;6354659;22;20413;-83
2024/04/17 07:00:38;;;;;;;3.43;3.13;;;6.50;99.90;;;;;;6354237;22;20235;-85
2024/04/17 07:03:04;;;;;;;4.63;2.80;;;6.80;99.90;;;;;;6354087;22;20469;-85
2024/04/17 07:05:34;;;;;;;5.65;3.40;;;;;;;;;;6342168;22;20487;-85
2024/04/17 07:08:00;;;;;;;5.13;2.70;;;6.80;99.90;;;;;;6339710;22;20224;-86
2024/04/17 07:10:43;;;;;;;3.53;3.17;;;7.00;99.90;;;;;;6342240;22;20240;-84
2024/04/17 07:13:09;;;;;;;3.70;3.40;;;7.20;99.90;;;;;;6348047;22;20464;-85
2024/04/17 07:15:40;;;;;;;4.60;2.77;;;7.40;99.90;;;;;;6343906;22;20506;-84
2024/04/17 07:18:06;;;;;;;2.70;2.47;;;7.50;99.90;;;;;;6346964;22;20432;-84
2024/04/17 07:20:35;;;;;;;4.27;1.60;;;;;;;;;;6350531;22;20452;-84
2024/04/17 07:23:02;;;;;;;3.40;1.40;;;;;;;;;;6353537;22;20424;-84
2024/04/17 07:25:31;;;;;;;2.47;1.40;;;;;;;;;;6343866;22;20549;-84
2024/04/17 07:28:00;;;;;;;3.30;2.23;;;;;;;;;;6341147;22;20460;-85
2024/04/17 07:30:29;;;;;;;2.13;1.93;;;;;;;;;;6344287;22;20548;-85
2024/04/17 07:32:56;;;;;;;3.37;1.70;;;;;;;;;;6343656;22;20444;-86
2024/04/17 07:35:26;;;;;;;1.90;1.50;;;;;;;;;;6338871;22;20534;-85
2024/04/17 07:37:52;;;;;;;2.00;1.80;;;;;;;;;;6338071;22;20491;-84
2024/04/17 07:40:22;;;;;;;1.50;1.40;;;;;;;;;;6337745;22;20522;-85
2024/04/17 07:42:48;;;;;;;4.63;1.83;;;;;;;;;;6335700;22;20552;-85
2024/04/17 07:45:21;;;;;;;2.93;2.07;;;;;;;;;;6336674;22;20472;-85
2024/04/17 07:47:48;;;;;;;2.47;1.80;;;;;;;;;;6337212;22;20461;-85
2024/04/17 07:50:16;;;;;;;2.60;2.40;;;;;;;;;;6337535;22;20966;-85
2024/04/17 07:52:43;;;;;;;2.23;1.63;;;;;;;;;;6336816;22;20785;-85
2024/04/17 07:55:11;;;;;;;2.30;2.10;;;;;;;;;;6338062;22;20533;-86
2024/04/17 07:57:38;;;;;;;3.70;2.47;;;;;;;;;;6337329;22;20432;-85
2024/04/17 08:00:07;;;;;;;2.20;2.00;;;;;;;;;;6337642;22;20519;-85
2024/04/17 08:02:36;;;;;;;5.17;2.57;;;;;;;;;;6336331;22;20220;-84
2024/04/17 08:05:04;;;;;;;4.60;2.70;;;;;;;;;;6344999;22;20436;-85
2024/04/17 08:07:31;;;;;;;5.93;2.77;;;;;;;;;;6350986;22;20472;-83
2024/04/17 08:09:59;;;;;;;2.73;2.53;;;;;;;;;;6352015;22;20424;-84
2024/04/17 08:12:26;;;;;;;4.30;2.87;;;;;;;;;;6352842;22;20538;-85
2024/04/17 08:14:54;;;;;;;3.37;2.90;;;;;;;;;;6339786;22;20507;-85
2024/04/17 08:17:20;;;;;;;4.57;3.60;;;;;;;;;;6336368;22;20468;-85
2024/04/17 08:19:52;;;;;;;3.10;2.80;;;;;;;;;;6337458;22;20436;-85
2024/04/17 08:22:18;;;;;;;3.10;2.60;;;;;;;;;;6337516;22;20472;-85
2024/04/17 08:24:47;;;;;;;3.63;3.20;;;;;;;;;;6341531;22;20452;-85
2024/04/17 08:27:13;;;;;;;5.83;3.17;;;;;;;;;;6336175;22;20441;-85
2024/04/17 08:29:42;;;;;;;4.33;3.17;;;;;;;;;;6336954;22;20448;-86
2024/04/17 08:32:09;;;;;;;3.53;2.90;;;;;;;;;;6337656;22;20565;-86
2024/04/17 08:34:38;;;;;;;3.17;2.93;;;;;;;;;;6342573;22;20535;-85
2024/04/17 08:37:07;;;;;;;5.30;4.10;;;;;;;;;;6348186;22;20433;-85
2024/04/17 08:39:36;;;;;;;5.93;3.47;;;;;;;;;;6336113;22;20945;-85
2024/04/17 08:42:05;;;;;;;6.17;3.70;;;7.80;99.90;;;;;;6336186;22;21066;-85
2024/04/17 08:44:36;;;;;;;4.33;3.63;;;7.90;99.90;;;;;;6336225;22;20484;-85
2024/04/17 08:47:03;;;;;;;3.60;3.30;;;8.00;99.90;;;;;;6336038;22;20492;-85
2024/04/17 08:49:36;;;;;;;2.93;2.70;;;8.20;99.90;;;;;;6335691;22;20457;-85
2024/04/17 08:52:03;;;;;;;2.97;2.77;;;8.50;99.90;;;;;;6335460;22;20497;-85
2024/04/17 08:54:35;;;;;;;2.80;2.50;;;8.40;70.70;;;;;;6335473;22;20436;-85
2024/04/17 08:57:02;;;;;;;5.00;3.20;;;8.10;46.40;;;;;;6336053;22;20444;-85
2024/04/17 08:59:30;;;;;;;5.70;3.17;;;8.20;69.40;;;;;;6336637;22;20479;-85
2024/04/17 09:02:00;;;;;;;5.27;3.67;;;8.10;58.40;;;;;;6337160;22;20516;-85
2024/04/17 09:04:29;;;;;;;3.00;2.80;;;8.20;66.00;;;;;;6336255;22;20452;-84
2024/04/17 09:06:56;;;;;;;2.90;2.70;;;8.00;65.30;;;;;;6339238;22;20773;-85
2024/04/17 09:09:26;;;;;;;5.93;3.30;;;8.40;69.70;;;;;;6340246;22;20997;-84
2024/04/17 09:11:55;;;;;;;3.03;2.83;;;8.20;61.30;;;;;;6339860;22;20816;-83
2024/04/17 09:14:24;;;;;;;6.20;3.60;;;8.10;76.30;;;;;;6353559;22;20421;-84
2024/04/17 09:16:50;;;;;;;3.60;3.30;;;8.30;91.40;;;;;;6345670;22;20433;-84
2024/04/17 09:19:19;;;;;;;5.10;3.30;;;;;;;;;;6341446;22;20444;-84
2024/04/17 09:21:45;;;;;;;5.43;3.53;;;8.20;82.50;;;;;;6336837;22;21017;-85
2024/04/17 09:24:14;;;;;;;4.20;3.90;;;;;;;;;;6337507;22;20642;-85
2024/04/17 09:26:40;;;;;;;5.97;3.47;;;8.50;99.90;;;;;;6342918;22;20499;-85
2024/04/17 09:29:12;;;;;;;6.20;3.33;;;;;;;;;;6347423;22;20545;-84
2024/04/17 09:31:38;;;;;;;4.07;3.40;;;8.40;93.50;;;;;;6350010;22;20452;-85
2024/04/17 09:34:12;;;;;;;4.90;3.80;;;8.50;99.60;;;;;;6340002;22;20428;-85
2024/04/17 09:36:43;;;;;;;3.20;2.93;;;;;;;;;;6337864;22;20471;-86
2024/04/17 09:39:12;;;;;;;3.27;3.07;;;;;;;;;;6337142;22;20476;-85
2024/04/17 09:41:40;;;;;;;2.80;2.60;;;9.00;92.60;;;;;;6337654;22;20476;-85
2024/04/17 09:44:13;;;;;;;3.43;3.10;;;9.00;92.70;;;;;;6336639;22;20448;-85
2024/04/17 09:46:41;;;;;;;3.53;3.03;;;8.80;76.60;;;;;;6336914;22;20496;-85
2024/04/17 09:49:20;;;;;;;2.67;2.43;;;8.70;86.80;;;;;;6336773;22;20440;-85
2024/04/17 09:51:49;;;;;;;6.47;4.77;;;8.70;77.00;;;;;;6337435;22;20436;-85
2024/04/17 09:54:19;;;;;;;4.50;3.83;;;8.90;99.90;;;;;;6336825;22;20460;-85
2024/04/17 09:56:46;;;;;;;2.93;2.30;;;8.90;58.90;;;;;;6339039;22;20440;-85
2024/04/17 09:59:21;;;;;;;3.77;3.47;;;9.10;45.90;;;;;;6346720;22;20457;-85
2024/04/17 10:01:47;;;;;;;2.90;2.70;;;8.90;57.90;;;;;;6347278;22;20555;-85
2024/04/17 10:04:16;;;;;;;7.87;4.70;;;8.60;45.40;;;;;;6337916;22;20469;-85
2024/04/17 10:06:43;;;;;;;3.07;2.87;;;8.70;44.60;;;;;;6338655;22;20509;-85
2024/04/17 10:09:13;;;;;;;3.77;2.60;;;8.70;77.90;;;;;;6336493;22;20457;-85
2024/04/17 10:11:40;;;;;;;4.20;2.43;;;8.60;47.70;;;;;;6336239;22;20472;-85
2024/04/17 10:14:12;;;;;;;7.23;2.93;;;8.90;34.80;;;;;;6336031;22;20489;-85
2024/04/17 10:16:41;;;;;;;2.40;1.97;;;8.90;20.80;;;;;;6339290;22;20516;-86
2024/04/17 10:19:10;;;;;;;4.67;2.50;;;8.90;19.20;;;;;;6338755;22;20486;-85
2024/04/17 10:21:36;;;;;;;4.40;3.27;;;9.20;25.80;;;;;;6337300;22;20480;-85
2024/04/17 10:24:09;;;;;;;4.87;3.77;;;9.40;28.70;;;;;;6336334;22;20429;-85
2024/04/17 10:26:43;;;;;;;8.20;2.77;;;9.70;29.60;;;;;;6341376;22;20460;-85
2024/04/17 10:29:17;;;;;;;3.03;2.53;;;9.90;27.40;;;;;;6338864;22;20777;-85
2024/04/17 10:31:57;;;;;;;2.97;2.77;;;9.90;18.20;;;;;;6341750;22;20613;-85
2024/04/17 10:34:26;;;;;;;2.90;2.53;;;;;;;;;;6338236;22;20468;-85
2024/04/17 10:36:53;;;;;;;4.20;2.97;;;10.40;9.80;;;;;;6341623;22;20475;-83
2024/04/17 10:39:22;;;;;;;4.30;2.50;;;10.30;16.00;;;;;;6354772;22;20512;-81
2024/04/17 10:41:48;;;;;;;7.53;2.20;;;10.40;9.40;;;;;;6355108;22;20448;-83
2024/04/17 10:44:16;;;;;;;2.33;1.80;;;10.30;1.00;;;;;;6354677;22;20475;-83
2024/04/17 10:46:43;;;;;;;1.90;1.80;;;;;;;;;;6351238;22;20702;-84
2024/04/17 10:49:20;;;;;;;2.20;2.00;;;10.40;1.00;;;;;;6348684;22;20456;-84
2024/04/17 10:51:47;;;;;;;8.30;5.87;;;10.30;1.00;;;;;;6348771;22;20488;-84
2024/04/17 10:54:16;;;;;;;9.40;4.53;;;10.10;1.00;;;;;;6342115;22;20436;-85
2024/04/17 10:56:42;;;;;;;2.23;2.03;;;10.00;1.00;;;;;;6336250;22;20513;-85
2024/04/17 10:59:11;;;;;;;4.17;2.17;;;10.00;1.00;;;;;;6335811;22;20460;-85
2024/04/17 11:01:37;;;;;;;1.63;1.53;;;9.90;1.00;;;;;;6335313;22;20445;-84
2024/04/17 11:04:06;;;;;;;1.73;1.63;;;10.20;1.00;;;;;;6335838;22;20436;-85
2024/04/17 11:06:35;;;;;;;2.57;1.87;;;10.30;1.00;;;;;;6348184;22;20457;-84
2024/04/17 11:09:07;;;;;;;4.00;2.40;;;;;;;;;;6345257;22;20504;-85
2024/04/17 11:11:34;;;;;;;2.37;1.70;;;;;;;;;;6337218;22;20444;-85
2024/04/17 11:14:03;;;;;;;1.60;1.50;;;;;;;;;;6336061;22;20464;-85
2024/04/17 11:16:29;;;;;;;2.73;2.00;;;;;;;;;;6336452;22;20473;-85
2024/04/17 11:18:59;;;;;;;1.57;1.47;;;;;;;;;;6335977;22;20504;-84
2024/04/17 11:21:26;;;;;;;9.80;2.50;;;;;;;;;;6336157;22;20473;-86
2024/04/17 11:23:57;;;;;;;3.27;1.63;;;;;;;;;;6341443;22;20476;-85
2024/04/17 11:26:24;;;;;;;1.67;1.40;;;;;;;;;;6344697;22;20508;-84
2024/04/17 11:28:53;;;;;;;1.67;1.40;;;;;;;;;;6336496;22;20545;-84
2024/04/17 11:31:20;;;;;;;1.93;1.83;;;;;;;;;;6335765;22;20472;-85
2024/04/17 11:33:49;;;;;;;2.33;1.40;;;;;;;;;;6336097;22;20516;-85
2024/04/17 11:36:16;;;;;;;2.13;1.90;;;;;;;;;;6336868;22;20436;-83
2024/04/17 11:38:45;;;;;;;1.53;1.43;;;;;;;;;;6339660;22;20488;-83
2024/04/17 11:41:15;;;;;;;1.60;1.50;;;;;;;;;;6335372;22;20480;-85
2024/04/17 11:43:44;;;;;;;2.03;1.57;;;;;;;;;;6339771;22;20456;-85
2024/04/17 11:46:13;;;;;;;3.57;3.27;;;;;;;;;;6342163;22;20476;-85
2024/04/17 11:48:43;;;;;;;5.93;2.93;;;;;;;;;;6336655;22;20864;-85
2024/04/17 11:51:10;;;;;;;3.70;1.63;;;;;;;;;;6337622;22;20488;-85
2024/04/17 11:53:40;;;;;;;2.60;2.37;;;;;;;;;;6335897;22;20571;-85
2024/04/17 11:56:14;;;;;;;5.00;2.47;;;;;;;;;;6335696;22;20509;-85
2024/04/17 11:58:45;;;;;;;2.20;1.70;;;;;;;;;;6336077;22;20514;-85
2024/04/17 12:01:14;;;;;;;2.17;1.97;;;;;;;;;;6336930;22;20574;-85
2024/04/17 12:03:41;;;;;;;1.47;1.37;;;;;;;;;;6335393;22;20507;-84
2024/04/17 12:06:13;;;;;;;1.63;1.20;;;;;;;;;;6341422;22;20518;-85
2024/04/17 12:08:39;;;;;;;8.30;1.83;;;;;;;;;;6339255;22;20929;-83
2024/04/17 12:11:08;;;;;;;1.33;1.23;;;;;;;;;;6336373;22;20480;-85
2024/04/17 12:13:36;;;;;;;1.60;1.50;;;;;;;;;;6335958;22;20536;-84
2024/04/17 12:16:09;;;;;;;2.30;1.40;;;;;;;;;;6342632;22;20502;-85
2024/04/17 12:18:36;;;;;;;1.30;1.20;;;11.60;1.00;;;;;;6338174;22;20479;-85
2024/04/17 12:21:04;;;;;;;5.23;1.40;;;11.80;1.00;;;;;;6336546;22;20476;-84
2024/04/17 12:23:31;;;;;;;2.10;1.70;;;11.80;1.00;;;;;;6335692;22;20456;-84
2024/04/17 12:28:44;;;;;;;2.50;1.43;;;11.40;1.00;;;;;;6339033;22;20950;-85
2024/04/17 12:31:15;;;;;;;5.30;1.93;;;11.40;1.00;;;;;;6335799;22;20522;-85
2024/04/17 12:33:44;;;;;;;2.03;1.10;;;11.30;1.00;;;;;;6338893;22;20464;-84
2024/04/17 12:36:13;;;;;;;3.97;1.63;;;11.40;1.00;;;;;;6349667;22;20471;-83
2024/04/17 12:38:41;;;;;;;1.90;1.27;;;11.40;1.00;;;;;;6353866;22;20486;-82
2024/04/17 12:41:09;;;;;;;2.50;1.50;;;11.50;1.00;;;;;;6342777;22;20549;-85
2024/04/17 12:43:38;;;;;;;2.83;1.40;;;11.70;1.00;;;;;;6336243;22;20436;-85
2024/04/17 12:46:07;;;;;;;1.80;1.70;;;11.60;1.00;;;;;;6336517;22;20973;-85
2024/04/17 12:48:35;;;;;;;3.50;1.57;;;11.30;1.00;;;;;;6346871;22;20507;-85
2024/04/17 12:51:04;;;;;;;3.53;1.87;;;11.30;1.00;;;;;;6353828;22;20589;-85
2024/04/17 12:53:32;;;;;;;2.63;1.93;;;11.30;1.00;;;;;;6350837;22;20452;-85
2024/04/17 12:56:01;;;;;;;1.40;1.30;;;11.30;1.00;;;;;;6352484;22;20494;-83
2024/04/17 12:58:29;;;;;;;1.87;1.73;;;11.10;1.00;;;;;;6351455;22;20460;-84
2024/04/17 13:00:58;;;;;;;4.80;2.40;;;11.10;1.00;;;;;;6353304;22;20483;-85
2024/04/17 13:03:24;;;;;;;2.17;1.97;;;10.90;1.00;;;;;;6346197;22;20428;-85
2024/04/17 13:06:02;;;;;;;3.73;1.67;;;10.70;1.00;;;;;;6340465;22;20505;-85
2024/04/17 13:08:28;;;;;;;2.70;1.70;;;10.90;1.00;;;;;;6338831;22;20441;-83
2024/04/17 13:10:59;;;;;;;2.60;2.10;;;11.30;1.00;;;;;;6338256;22;20499;-83
2024/04/17 13:13:25;;;;;;;1.70;1.60;;;11.60;1.00;;;;;;6345906;22;20432;-84
2024/04/17 13:15:56;;;;;;;4.17;1.53;;;11.80;1.00;;;;;;6349427;22;20460;-83
2024/04/17 13:18:22;;;;;;;1.73;1.63;;;11.90;1.00;;;;;;6348123;22;20431;-83
2024/04/17 13:20:58;;;;;;;1.60;1.50;;;11.60;1.00;;;;;;6341322;22;20532;-84
2024/04/17 13:23:25;;;;;;;2.20;1.53;;;11.50;1.00;;;;;;6339441;22;20409;-84
2024/04/17 13:25:57;;;;;;;1.67;1.57;;;11.40;1.00;;;;;;6338207;22;20557;-85
2024/04/17 13:28:23;;;;;;;3.07;1.50;;;11.20;1.00;;;;;;6338241;22;20930;-85
2024/04/17 13:30:57;;;;;;;1.60;1.50;;;11.10;1.00;;;;;;6338227;22;20542;-85
2024/04/17 13:33:23;;;;;;;1.47;1.37;;;11.00;1.00;;;;;;6337645;22;20557;-84
2024/04/17 13:35:59;;;;;;;2.10;1.53;;;11.00;1.00;;;;;;6337909;22;20533;-84
2024/04/17 13:38:25;;;;;;;1.40;1.30;;;11.00;1.00;;;;;;6338175;22;20460;-84
2024/04/17 13:40:58;;;;;;;2.60;1.67;;;11.00;1.00;;;;;;6338728;22;20456;-85
2024/04/17 13:43:24;;;;;;;5.10;2.10;;;11.00;1.00;;;;;;6338271;22;20452;-84
2024/04/17 13:45:53;;;;;;;3.07;1.97;;;10.90;1.00;;;;;;6337422;22;20444;-85
2024/04/17 13:48:21;;;;;;;2.13;1.97;;;11.10;1.00;;;;;;6336189;22;20440;-87